Time;durP1;ratioP1;P1;durP2;ratioP2;P2;SDS_P1;SDS_P2;PMS_P1;PMS_P2;Temp;Humidity;BMP_temperature;BMP_pressure;BME280_temperature;BME280_humidity;BME280_pressure;Samples;Min_cycle;Max_cycle;Signal;HPM_P1;HPM_P2
2022/07/04 00:00:19;;;;;;;;;;;;;;;18.32;48.49;100992.25;4940302;28;7086;-76
2022/07/04 00:02:47;;;;;;;;;;;;;;;18.29;48.88;100991.28;4927036;28;7051;-75
2022/07/04 00:05:14;;;;;;;;;;;;;;;18.23;48.82;100985.94;4974225;28;6975;-76
2022/07/04 00:07:43;;;;;;;;;;;;;;;18.19;48.93;100990.16;4937839;28;7154;-76
2022/07/04 00:10:12;;;;;;;;;;;;;;;18.13;48.90;100985.69;4946952;28;7127;-75
2022/07/04 00:12:39;;;;;;;;;;;;;;;18.07;49.31;100989.84;4961244;28;6970;-75
2022/07/04 00:15:06;;;;;;;;;;;;;;;18.02;49.41;100981.91;4960934;28;8049;-76
2022/07/04 00:17:32;;;;;;;;;;;;;;;17.97;49.64;100984.38;4976951;28;8701;-75
2022/07/04 00:19:58;;;;;;;;;;;;;;;17.94;50.00;100988.59;4966198;28;7121;-76
2022/07/04 00:22:24;;;;;;;;;;;;;;;17.90;49.96;100988.53;4976674;28;7255;-75
2022/07/04 00:24:50;;;;;;;;;;;;;;;17.87;49.82;100984.97;4950039;28;6864;-75
2022/07/04 00:27:16;;;;;;;;;;;;;;;17.84;49.94;100987.47;4952973;28;6961;-75
2022/07/04 00:29:41;;;;;;;;;;;;;;;17.78;50.01;100977.81;4958743;28;6935;-75
2022/07/04 00:32:08;;;;;;;;;;;;;;;17.76;49.96;100976.88;4948806;28;6780;-76
2022/07/04 00:34:33;;;;;;;;;;;;;;;17.73;50.44;100974.22;4950214;28;6792;-75
2022/07/04 00:36:59;;;;;;;;;;;;;;;17.71;50.67;100975.88;4937195;28;6959;-75
2022/07/04 00:39:25;;;;;;;;;;;;;;;17.67;50.91;100974.91;4944950;28;6943;-75
2022/07/04 00:41:51;;;;;;;;;;;;;;;17.63;50.92;100963.59;4976472;28;7308;-75
2022/07/04 00:44:16;;;;;;;;;;;;;;;17.61;50.64;100960.06;4980840;28;6955;-75
2022/07/04 00:46:44;;;;;;;;;;;;;;;17.59;50.75;100966.03;4962595;28;6959;-75
2022/07/04 00:49:13;;;;;;;;;;;;;;;17.56;50.47;100964.25;4945387;28;7426;-75
2022/07/04 00:51:41;;;;;;;;;;;;;;;17.55;50.73;100961.63;4949314;28;6864;-75
2022/07/04 00:54:13;;;;;;;;;;;;;;;17.53;50.70;100963.28;4951955;28;6971;-75
2022/07/04 00:56:43;;;;;;;;;;;;;;;17.47;51.03;100961.38;4949896;28;6999;-76
2022/07/04 00:59:09;;;;;;;;;;;;;;;17.43;50.70;100957.84;4947652;28;6804;-75
2022/07/04 01:01:36;;;;;;;;;;;;;;;17.39;51.01;100957.72;4971594;28;6796;-75
2022/07/04 01:04:05;;;;;;;;;;;;;;;17.35;51.36;100961.94;4955807;28;7242;-75
2022/07/04 01:06:32;;;;;;;;;;;;;;;17.31;50.99;100966.16;4976194;28;6967;-75
2022/07/04 01:08:59;;;;;;;;;;;;;;;17.28;51.14;100955.66;4948529;28;6788;-75
2022/07/04 01:11:26;;;;;;;;;;;;;;;17.26;51.19;100962.53;4955026;28;6960;-75
2022/07/04 01:13:54;;;;;;;;;;;;;;;17.24;51.08;100969.38;4970372;28;7220;-75
2022/07/04 01:16:20;;;;;;;;;;;;;;;17.19;51.10;100965.75;4928033;28;6968;-75
2022/07/04 01:18:46;;;;;;;;;;;;;;;17.15;51.26;100969.09;4952428;28;6802;-75
2022/07/04 01:21:12;;;;;;;;;;;;;;;17.11;51.22;100959.50;4943377;28;6846;-75
2022/07/04 01:23:39;;;;;;;;;;;;;;;17.07;51.27;100964.56;4951203;28;6816;-75
2022/07/04 01:26:06;;;;;;;;;;;;;;;17.03;51.74;100960.13;4975946;28;7316;-75
2022/07/04 01:28:32;;;;;;;;;;;;;;;17.00;51.80;100960.06;4951293;28;7202;-75
2022/07/04 01:30:58;;;;;;;;;;;;;;;16.98;51.85;100961.66;4947814;28;6947;-76
2022/07/04 01:33:24;;;;;;;;;;;;;;;16.95;51.99;100964.16;4959028;28;6967;-75
2022/07/04 01:35:50;;;;;;;;;;;;;;;16.92;51.82;100956.31;4944498;28;6989;-75
2022/07/04 01:38:16;;;;;;;;;;;;;;;16.90;52.38;100952.78;4949549;28;6935;-75
2022/07/04 01:40:42;;;;;;;;;;;;;;;16.88;52.12;100959.63;4972407;28;7296;-75
2022/07/04 01:43:07;;;;;;;;;;;;;;;16.86;52.03;100953.53;4956773;28;7029;-75
2022/07/04 01:45:37;;;;;;;;;;;;;;;16.84;52.41;100968.13;4941093;28;8092;-75
2022/07/04 01:48:06;;;;;;;;;;;;;;;16.80;51.79;100962.88;4973680;28;7030;-75
2022/07/04 01:50:33;;;;;;;;;;;;;;;16.78;52.20;100961.91;4933566;28;6964;-75
2022/07/04 01:52:59;;;;;;;;;;;;;;;16.75;52.17;100959.25;4949475;28;8113;-75
2022/07/04 01:55:24;;;;;;;;;;;;;;;16.73;51.92;100960.91;4961154;28;10316;-75
2022/07/04 01:57:50;;;;;;;;;;;;;;;16.71;52.52;100962.59;4973173;28;7302;-75
2022/07/04 02:03:00;;;;;;;;;;;;;;;16.66;53.00;100958.94;4945105;28;6793;-75
2022/07/04 02:05:26;;;;;;;;;;;;;;;16.65;53.28;100962.38;4976380;28;7168;-75
2022/07/04 02:07:52;;;;;;;;;;;;;;;16.65;53.25;100963.22;4951315;28;6967;-75
2022/07/04 02:10:18;;;;;;;;;;;;;;;16.66;52.95;100970.19;4961301;28;6848;-76
2022/07/04 02:13:02;;;;;;;;;;;;;;;16.68;53.09;100972.81;4977325;28;6963;-75
2022/07/04 02:15:36;;;;;;;;;;;;;;;16.68;52.82;100970.22;4977227;28;7202;-75
2022/07/04 02:18:05;;;;;;;;;;;;;;;16.66;52.76;100969.31;4965709;28;7238;-76
2022/07/04 02:20:32;;;;;;;;;;;;;;;16.64;53.16;100969.25;4945221;28;6808;-76
2022/07/04 02:22:58;;;;;;;;;;;;;;;16.62;53.30;100978.69;4979552;28;6987;-75
2022/07/04 02:25:24;;;;;;;;;;;;;;;16.59;53.34;100973.41;4953906;28;6780;-75
2022/07/04 02:27:50;;;;;;;;;;;;;;;16.56;53.43;100973.28;4952501;28;6992;-75
2022/07/04 02:30:17;;;;;;;;;;;;;;;16.51;53.21;100973.16;4963599;28;7020;-75
2022/07/04 02:32:43;;;;;;;;;;;;;;;16.49;53.94;100972.22;4972304;28;6899;-75
2022/07/04 02:35:10;;;;;;;;;;;;;;;16.47;53.66;100983.38;4966411;28;7205;-75
2022/07/04 02:37:36;;;;;;;;;;;;;;;16.44;53.82;100978.06;4956922;28;7014;-75
2022/07/04 02:40:04;;;;;;;;;;;;;;;16.43;54.18;100987.56;4977128;28;6796;-75
2022/07/04 02:42:34;;;;;;;;;;;;;;;16.42;54.07;100985.81;4945611;28;7213;-75
2022/07/04 02:45:00;;;;;;;;;;;;;;;16.41;54.22;100989.19;4942498;28;6844;-78
2022/07/04 02:47:27;;;;;;;;;;;;;;;16.40;54.55;100986.56;4946050;28;6872;-78
2022/07/04 02:49:53;;;;;;;;;;;;;;;16.42;54.85;100996.16;4967162;28;7147;-78
2022/07/04 02:52:19;;;;;;;;;;;;;;;16.43;54.41;101002.19;4964104;28;7109;-78
2022/07/04 02:54:46;;;;;;;;;;;;;;;16.44;54.33;100999.66;4959894;28;6990;-79
2022/07/04 02:57:12;;;;;;;;;;;;;;;16.43;54.31;100997.00;4949882;28;8169;-78
2022/07/04 02:59:38;;;;;;;;;;;;;;;16.42;54.25;101001.31;4977574;28;6992;-77
2022/07/04 03:02:04;;;;;;;;;;;;;;;16.39;54.38;101001.19;4970867;28;6780;-77
2022/07/04 03:04:30;;;;;;;;;;;;;;;16.39;54.15;101008.97;4940809;28;7245;-77
2022/07/04 03:06:55;;;;;;;;;;;;;;;16.38;54.02;101021.03;4962597;28;6968;-77
2022/07/04 03:09:21;;;;;;;;;;;;;;;16.37;53.98;101013.22;4974270;28;7191;-77
2022/07/04 03:11:48;;;;;;;;;;;;;;;16.34;54.18;101026.06;4977272;28;7069;-77
2022/07/04 03:14:14;;;;;;;;;;;;;;;16.30;54.11;101022.47;4961019;28;7848;-77
2022/07/04 03:16:40;;;;;;;;;;;;;;;16.28;54.24;101023.25;4960877;28;6845;-77
2022/07/04 03:19:05;;;;;;;;;;;;;;;16.26;54.55;101020.59;4970617;28;7475;-77
2022/07/04 03:21:31;;;;;;;;;;;;;;;16.24;54.19;101033.50;4972445;28;6776;-77
2022/07/04 03:23:59;;;;;;;;;;;;;;;16.22;54.29;101029.09;4958128;28;6788;-77
2022/07/04 03:26:31;;;;;;;;;;;;;;;16.18;54.25;101033.25;4956995;28;8411;-77
2022/07/04 03:28:58;;;;;;;;;;;;;;;16.13;54.53;101032.25;4927172;28;7264;-77
2022/07/04 03:31:25;;;;;;;;;;;;;;;16.09;54.64;101028.66;4944682;28;6816;-77
2022/07/04 03:33:51;;;;;;;;;;;;;;;16.06;54.54;101030.25;4945010;28;6923;-77
2022/07/04 03:36:18;;;;;;;;;;;;;;;16.02;54.54;101031.84;4942063;28;6986;-77
2022/07/04 03:38:44;;;;;;;;;;;;;;;16.02;54.96;101036.13;4947121;28;6776;-77
2022/07/04 03:41:10;;;;;;;;;;;;;;;15.99;54.74;101034.34;4967533;28;7429;-77
2022/07/04 03:43:36;;;;;;;;;;;;;;;15.97;54.85;101033.38;4941960;28;6780;-77
2022/07/04 03:46:03;;;;;;;;;;;;;;;15.96;55.08;101034.19;4971774;28;7389;-77
2022/07/04 03:48:28;;;;;;;;;;;;;;;15.96;54.94;101031.63;4953707;28;8004;-78
2022/07/04 03:50:54;;;;;;;;;;;;;;;16.01;54.87;101029.19;4960294;28;8246;-77
2022/07/04 03:53:20;;;;;;;;;;;;;;;16.02;54.95;101030.94;4949239;28;6870;-77
2022/07/04 03:55:47;;;;;;;;;;;;;;;16.07;55.22;101021.66;4950161;28;6833;-77
2022/07/04 03:58:13;;;;;;;;;;;;;;;16.10;55.12;101030.41;4961810;28;6977;-77
2022/07/04 04:00:38;;;;;;;;;;;;;;;16.13;55.32;101029.66;4959535;28;7399;-77
2022/07/04 04:05:26;;;;;;;;;;;;;;;16.18;55.06;101035.84;4935342;28;7008;-77
2022/07/04 04:05:49;;;;;;;;;;;;;;;16.22;55.10;101034.25;4960127;28;7287;-77
2022/07/04 04:08:15;;;;;;;;;;;;;;;16.28;55.31;101036.16;4965094;28;6829;-76
2022/07/04 04:10:42;;;;;;;;;;;;;;;16.30;54.90;101027.66;4967938;28;6783;-77
2022/07/04 04:13:08;;;;;;;;;;;;;;;16.35;55.02;101031.25;4947138;28;7139;-77
2022/07/04 04:15:34;;;;;;;;;;;;;;;16.40;55.15;101034.00;4962840;28;6807;-77
2022/07/04 04:17:59;;;;;;;;;;;;;;;16.46;55.18;101035.91;4976418;28;7250;-77
2022/07/04 04:20:25;;;;;;;;;;;;;;;16.56;55.72;101037.13;4964953;28;7209;-77
2022/07/04 04:22:50;;;;;;;;;;;;;;;16.76;56.48;101042.97;4955860;28;6860;-77
2022/07/04 04:25:17;;;;;;;;;;;;;;;17.07;57.22;101038.81;4969216;28;7317;-77
2022/07/04 04:27:43;;;;;;;;;;;;;;;17.48;57.70;101035.72;4975934;28;7112;-77
2022/07/04 04:30:09;;;;;;;;;;;;;;;17.97;57.75;101030.19;4963554;28;6951;-77
2022/07/04 04:32:35;;;;;;;;;;;;;;;18.45;57.43;101036.66;4964441;28;7011;-77
2022/07/04 04:35:01;;;;;;;;;;;;;;;18.88;56.16;101040.34;4964891;28;6959;-77
2022/07/04 04:37:26;;;;;;;;;;;;;;;19.28;55.63;101040.41;4949322;28;6957;-77
2022/07/04 04:39:52;;;;;;;;;;;;;;;19.68;55.73;101042.09;4954001;28;6935;-77
2022/07/04 04:42:18;;;;;;;;;;;;;;;20.08;54.93;101045.50;4964019;28;6776;-77
2022/07/04 04:44:43;;;;;;;;;;;;;;;20.46;53.65;101048.78;4971059;28;6960;-77
2022/07/04 04:47:09;;;;;;;;;;;;;;;20.77;53.28;101047.59;4952923;28;6976;-77
2022/07/04 04:49:35;;;;;;;;;;;;;;;21.09;52.74;101043.75;4979913;28;6972;-77
2022/07/04 04:52:00;;;;;;;;;;;;;;;21.45;52.08;101036.41;4931504;28;6972;-77
2022/07/04 04:54:26;;;;;;;;;;;;;;;21.76;51.76;101029.00;4978403;28;7053;-77
2022/07/04 04:56:52;;;;;;;;;;;;;;;22.15;51.02;101026.81;4974656;28;7135;-77
2022/07/04 04:59:17;;;;;;;;;;;;;;;22.51;50.70;101030.69;4955528;28;6791;-76
2022/07/04 05:01:43;;;;;;;;;;;;;;;22.84;49.31;101031.78;4970770;28;6792;-76
2022/07/04 05:04:09;;;;;;;;;;;;;;;23.08;48.64;101030.22;4973611;28;7313;-76
2022/07/04 05:06:35;;;;;;;;;;;;;;;23.27;47.59;101022.44;4978408;28;6854;-76
2022/07/04 05:09:00;;;;;;;;;;;;;;;23.37;46.34;101026.03;4946944;28;6940;-76
2022/07/04 05:11:26;;;;;;;;;;;;;;;23.41;45.91;101028.69;4960113;28;7024;-76
2022/07/04 05:13:52;;;;;;;;;;;;;;;23.45;45.21;101029.56;4963005;28;6932;-75
2022/07/04 05:16:17;;;;;;;;;;;;;;;23.52;45.82;101025.22;4963130;28;6831;-75
2022/07/04 05:18:43;;;;;;;;;;;;;;;23.57;45.04;101029.59;4959782;28;8343;-76
2022/07/04 05:21:08;;;;;;;;;;;;;;;23.62;44.72;101034.00;4978211;28;6772;-75
2022/07/04 05:23:34;;;;;;;;;;;;;;;23.69;44.41;101038.38;4962608;28;6783;-75
2022/07/04 05:26:00;;;;;;;;;;;;;;;23.81;44.42;101038.44;4945311;28;6776;-76
2022/07/04 05:28:25;;;;;;;;;;;;;;;23.96;44.69;101040.22;4975400;28;6783;-75
2022/07/04 05:30:51;;;;;;;;;;;;;;;24.11;44.37;101041.13;4973723;28;7077;-75
2022/07/04 05:33:17;;;;;;;;;;;;;;;24.30;44.78;101043.78;4961714;28;7183;-75
2022/07/04 05:35:43;;;;;;;;;;;;;;;24.56;45.00;101043.78;4945742;28;7310;-75
2022/07/04 05:38:08;;;;;;;;;;;;;;;24.87;43.36;101043.84;4961507;28;6780;-75
2022/07/04 05:40:34;;;;;;;;;;;;;;;25.06;42.55;101044.66;4957650;28;6776;-75
2022/07/04 05:43:00;;;;;;;;;;;;;;;25.18;42.24;101037.63;4974252;28;6784;-75
2022/07/04 05:45:25;;;;;;;;;;;;;;;25.23;41.66;101026.25;4963015;28;6780;-75
2022/07/04 05:47:51;;;;;;;;;;;;;;;25.30;42.11;101026.25;4947827;28;7654;-76
2022/07/04 05:50:17;;;;;;;;;;;;;;;25.42;42.59;101026.19;4960499;28;6993;-76
2022/07/04 05:52:42;;;;;;;;;;;;;;;25.58;41.73;101024.41;4973324;28;6776;-77
2022/07/04 05:55:09;;;;;;;;;;;;;;;25.67;41.83;101012.13;4959732;28;6911;-76
2022/07/04 05:57:34;;;;;;;;;;;;;;;25.70;40.95;101012.97;4949273;28;6784;-75
2022/07/04 06:00:01;;;;;;;;;;;;;;;25.68;40.37;101009.50;4947486;28;6772;-76
2022/07/04 06:02:26;;;;;;;;;;;;;;;25.60;40.20;101012.16;4980434;28;7352;-75
2022/07/04 06:04:52;;;;;;;;;;;;;;;25.43;39.88;101013.97;4952490;28;6796;-76
2022/07/04 06:07:18;;;;;;;;;;;;;;;25.19;39.45;101007.91;4974486;28;6954;-75
2022/07/04 06:09:44;;;;;;;;;;;;;;;24.95;39.33;101010.59;4976428;28;6772;-75
2022/07/04 06:12:10;;;;;;;;;;;;;;;24.71;39.64;101010.63;4972125;28;7235;-75
2022/07/04 06:14:35;;;;;;;;;;;;;;;24.44;40.39;101010.63;4944671;28;6776;-76
2022/07/04 06:17:01;;;;;;;;;;;;;;;24.22;39.82;101017.59;4960769;28;7294;-75
2022/07/04 06:19:26;;;;;;;;;;;;;;;23.99;40.10;101013.16;4971402;28;7243;-75
2022/07/04 06:21:52;;;;;;;;;;;;;;;23.78;40.23;101011.38;4979048;28;6775;-75
2022/07/04 06:24:18;;;;;;;;;;;;;;;23.59;40.73;101021.78;4952201;28;6879;-75
2022/07/04 06:26:43;;;;;;;;;;;;;;;23.44;40.97;101023.44;4951441;28;6950;-75
2022/07/04 06:29:09;;;;;;;;;;;;;;;23.35;41.10;101023.41;4958176;28;7338;-76
2022/07/04 06:31:35;;;;;;;;;;;;;;;23.25;42.06;101024.19;4949060;28;8463;-76
2022/07/04 06:36:45;;;;;;;;;;;;;;;23.08;42.48;101025.00;4973228;28;7563;-75
2022/07/04 06:39:11;;;;;;;;;;;;;;;23.04;42.51;101033.66;4978536;28;7418;-75
2022/07/04 06:41:37;;;;;;;;;;;;;;;23.02;42.58;101025.81;4942298;28;8151;-75
2022/07/04 06:44:03;;;;;;;;;;;;;;;23.02;42.42;101019.72;4944641;28;7232;-75
2022/07/04 06:46:29;;;;;;;;;;;;;;;23.00;42.54;101031.91;4947262;28;6973;-75
2022/07/04 06:48:55;;;;;;;;;;;;;;;23.00;42.39;101034.53;4980395;28;7231;-76
2022/07/04 06:51:21;;;;;;;;;;;;;;;23.01;42.52;101029.28;4955420;28;6779;-75
2022/07/04 06:53:46;;;;;;;;;;;;;;;23.03;42.89;101045.00;4959375;28;7032;-76
2022/07/04 06:56:12;;;;;;;;;;;;;;;23.06;42.50;101031.94;4973608;28;7228;-76
2022/07/04 06:58:38;;;;;;;;;;;;;;;23.16;43.29;101025.03;4947436;28;6756;-76
2022/07/04 07:01:03;;;;;;;;;;;;;;;23.34;42.99;101029.50;4940388;28;6957;-76
2022/07/04 07:03:29;;;;;;;;;;;;;;;23.64;43.11;101030.50;4926741;28;7199;-75
2022/07/04 07:05:56;;;;;;;;;;;;;;;24.04;42.74;101028.88;4947398;28;6994;-75
2022/07/04 07:08:22;;;;;;;;;;;;;;;24.44;42.44;101028.97;4940005;28;7202;-76
2022/07/04 07:10:49;;;;;;;;;;;;;;;24.95;42.51;101025.47;4958009;28;6784;-76
2022/07/04 07:13:14;;;;;;;;;;;;;;;25.46;41.34;101029.69;4947735;28;6939;-76
2022/07/04 07:15:40;;;;;;;;;;;;;;;26.02;40.39;101032.06;4968624;28;6764;-76
2022/07/04 07:18:06;;;;;;;;;;;;;;;26.53;39.45;101021.22;4928822;28;8341;-76
2022/07/04 07:20:32;;;;;;;;;;;;;;;27.01;38.38;101026.03;4941911;28;7271;-76
2022/07/04 07:22:58;;;;;;;;;;;;;;;27.47;37.46;101015.84;4970415;28;6935;-76
2022/07/04 07:25:24;;;;;;;;;;;;;;;27.86;36.21;101010.97;4973829;28;6840;-76
2022/07/04 07:27:49;;;;;;;;;;;;;;;28.18;35.74;101007.84;4974744;28;7065;-78
2022/07/04 07:30:15;;;;;;;;;;;;;;;28.49;35.63;101010.00;4945529;28;7138;-76
2022/07/04 07:32:41;;;;;;;;;;;;;;;28.76;35.26;101005.13;4969827;28;7153;-76
2022/07/04 07:35:07;;;;;;;;;;;;;;;29.05;34.14;101006.38;4975106;28;6920;-76
2022/07/04 07:37:32;;;;;;;;;;;;;;;29.30;33.76;101003.25;4970028;28;7978;-76
2022/07/04 07:39:58;;;;;;;;;;;;;;;29.56;33.07;100997.44;4972636;28;7318;-76
2022/07/04 07:42:24;;;;;;;;;;;;;;;29.79;33.68;101007.50;4956391;28;6829;-76
2022/07/04 07:44:50;;;;;;;;;;;;;;;30.07;32.49;101014.81;4954595;28;7237;-76
2022/07/04 07:47:15;;;;;;;;;;;;;;;30.34;32.36;101009.75;4940423;28;9738;-76
2022/07/04 07:49:46;;;;;;;;;;;;;;;30.55;31.93;101012.75;4940563;28;7378;-77
2022/07/04 07:52:12;;;;;;;;;;;;;;;30.69;30.74;101014.19;4968447;28;6900;-77
2022/07/04 07:54:37;;;;;;;;;;;;;;;30.75;30.46;101014.88;4970214;28;6991;-77
2022/07/04 07:57:04;;;;;;;;;;;;;;;30.80;30.21;101012.09;4941117;28;6959;-77
2022/07/04 07:59:29;;;;;;;;;;;;;;;30.89;31.17;101006.56;4972658;28;6947;-77
2022/07/04 08:01:55;;;;;;;;;;;;;;;31.04;30.44;101004.41;4957181;28;7184;-77
2022/07/04 08:04:37;;;;;;;;;;;;;;;31.20;29.79;101011.91;4956298;28;7032;-77
2022/07/04 08:07:08;;;;;;;;;;;;;;;31.31;29.50;101015.16;4972913;28;7284;-76
2022/07/04 08:09:35;;;;;;;;;;;;;;;31.41;29.84;101013.97;4947850;28;6788;-77
2022/07/04 08:12:03;;;;;;;;;;;;;;;31.55;30.06;101016.19;4959415;28;6920;-77
2022/07/04 08:14:30;;;;;;;;;;;;;;;31.70;29.31;101013.97;4969039;28;6864;-76
2022/07/04 08:16:57;;;;;;;;;;;;;;;31.84;29.60;101017.09;4928494;28;6989;-76
2022/07/04 08:19:24;;;;;;;;;;;;;;;32.00;28.76;101017.47;4975759;28;6851;-76
2022/07/04 08:21:51;;;;;;;;;;;;;;;32.21;28.34;101009.72;4957604;28;6780;-76
2022/07/04 08:24:17;;;;;;;;;;;;;;;32.46;28.46;101013.38;4969570;28;6796;-76
2022/07/04 08:26:43;;;;;;;;;;;;;;;32.78;28.17;101009.59;4948528;28;6776;-76
2022/07/04 08:29:08;;;;;;;;;;;;;;;33.06;27.91;101011.25;4974747;28;7252;-76
2022/07/04 08:31:34;;;;;;;;;;;;;;;33.26;27.57;101009.66;4977113;28;7240;-77
2022/07/04 08:34:00;;;;;;;;;;;;;;;33.35;27.20;101003.09;4949144;28;7030;-77
2022/07/04 08:36:25;;;;;;;;;;;;;;;33.46;26.84;101000.94;4958697;28;7855;-76
2022/07/04 08:38:51;;;;;;;;;;;;;;;33.62;26.72;101001.22;4962059;28;7006;-77
2022/07/04 08:41:19;;;;;;;;;;;;;;;33.90;26.49;101002.78;4976537;28;6901;-76
2022/07/04 08:43:47;;;;;;;;;;;;;;;34.26;25.83;101003.97;4946083;28;7119;-76
2022/07/04 08:46:19;;;;;;;;;;;;;;;34.56;25.64;101005.41;4941250;28;6988;-76
2022/07/04 08:48:52;;;;;;;;;;;;;;;34.92;25.90;101007.38;4944421;28;6900;-76
2022/07/04 08:51:32;;;;;;;;;;;;;;;35.29;24.55;100995.03;4958749;28;6800;-76
2022/07/04 08:54:01;;;;;;;;;;;;;;;35.66;24.13;100995.09;4959502;28;6932;-76
2022/07/04 08:59:15;;;;;;;;;;;;;;;36.21;23.82;101001.34;4959603;28;6808;-77
2022/07/04 09:01:43;;;;;;;;;;;;;;;36.40;23.75;100997.72;4958610;28;7860;-77
2022/07/04 09:04:11;;;;;;;;;;;;;;;36.42;23.05;100994.03;4958772;28;7020;-77
2022/07/04 09:06:36;;;;;;;;;;;;;;;36.28;23.63;100996.53;4942143;28;6784;-77
2022/07/04 09:09:03;;;;;;;;;;;;;;;36.33;22.68;101001.63;4962387;28;6938;-76
2022/07/04 09:11:28;;;;;;;;;;;;;;;36.54;22.95;100992.50;4972600;28;8376;-76
2022/07/04 09:13:57;;;;;;;;;;;;;;;36.71;22.24;100997.94;4975678;28;7028;-77
2022/07/04 09:16:23;;;;;;;;;;;;;;;36.77;22.58;100997.59;4965045;28;7195;-77
2022/07/04 09:18:48;;;;;;;;;;;;;;;36.86;22.53;100990.94;4949003;28;6847;-76
2022/07/04 09:21:14;;;;;;;;;;;;;;;36.93;22.47;100987.84;4977880;28;6930;-77
2022/07/04 09:23:42;;;;;;;;;;;;;;;37.09;22.08;100981.69;4959717;28;7177;-77
2022/07/04 09:26:17;;;;;;;;;;;;;;;37.23;22.68;100981.78;4950281;28;7152;-76
2022/07/04 09:28:52;;;;;;;;;;;;;;;37.50;21.87;100970.47;4946935;28;6820;-76
2022/07/04 09:31:21;;;;;;;;;;;;;;;37.76;21.96;100973.50;4943875;28;6867;-77
2022/07/04 09:33:54;;;;;;;;;;;;;;;38.02;21.77;100979.13;4960873;28;6800;-77
2022/07/04 09:36:23;;;;;;;;;;;;;;;38.25;21.26;100982.25;4961019;28;6792;-77
2022/07/04 09:39:09;;;;;;;;;;;;;;;38.24;20.51;100985.88;4975208;28;6784;-77
2022/07/04 09:41:58;;;;;;;;;;;;;;;38.23;20.66;100983.31;4935448;28;7024;-77
2022/07/04 09:44:50;;;;;;;;;;;;;;;38.19;20.67;100982.63;4956326;28;6811;-77
2022/07/04 09:47:22;;;;;;;;;;;;;;;38.13;20.34;100985.66;4949297;28;6812;-77
2022/07/04 09:50:05;;;;;;;;;;;;;;;38.17;20.40;100989.88;4958944;28;7212;-77
2022/07/04 09:52:32;;;;;;;;;;;;;;;38.23;20.44;100978.78;4957553;28;6996;-77
2022/07/04 09:55:05;;;;;;;;;;;;;;;38.22;20.39;100981.59;4922876;28;7344;-77
2022/07/04 09:57:32;;;;;;;;;;;;;;;38.24;20.22;100977.00;4962397;28;6816;-77
2022/07/04 10:00:30;;;;;;;;;;;;;;;38.39;20.11;100978.75;4943584;28;7101;-77
2022/07/04 10:03:22;;;;;;;;;;;;;;;38.53;19.81;100975.22;4942471;28;11220;-77
2022/07/04 10:06:11;;;;;;;;;;;;;;;38.65;19.78;100978.97;4960348;28;6796;-77
2022/07/04 10:08:40;;;;;;;;;;;;;;;38.80;19.62;100971.78;4943494;28;7202;-77
2022/07/04 10:11:08;;;;;;;;;;;;;;;38.97;19.71;100965.44;4934784;28;7253;-76
2022/07/04 10:13:34;;;;;;;;;;;;;;;39.22;19.40;100979.91;4948885;28;6931;-77
2022/07/04 10:16:00;;;;;;;;;;;;;;;39.40;19.42;100977.84;4949722;28;7390;-77
2022/07/04 10:18:27;;;;;;;;;;;;;;;39.55;19.20;100972.47;4962688;28;6768;-77
2022/07/04 10:20:55;;;;;;;;;;;;;;;39.66;19.00;100975.28;4942840;28;6796;-77
2022/07/04 10:23:25;;;;;;;;;;;;;;;39.78;18.86;100965.56;4947549;28;6812;-77
2022/07/04 10:25:53;;;;;;;;;;;;;;;39.66;18.27;100964.56;4948340;28;7164;-77
2022/07/04 10:28:20;;;;;;;;;;;;;;;39.05;18.58;100967.59;4951384;28;6871;-77
2022/07/04 10:30:58;;;;;;;;;;;;;;;38.14;19.12;100969.53;4945460;28;6816;-77
2022/07/04 10:33:29;;;;;;;;;;;;;;;36.85;19.40;100971.34;4944881;28;7052;-77
2022/07/04 10:36:01;;;;;;;;;;;;;;;35.86;20.05;100962.16;4942701;28;6820;-77
2022/07/04 10:38:55;;;;;;;;;;;;;;;35.75;20.87;100971.59;4972584;28;6859;-77
2022/07/04 10:41:23;;;;;;;;;;;;;;;36.00;21.06;100957.91;4960428;28;7160;-77
2022/07/04 10:43:56;;;;;;;;;;;;;;;35.94;20.45;100953.75;4976347;28;6856;-77
2022/07/04 10:46:25;;;;;;;;;;;;;;;35.54;21.57;100961.91;4944628;28;7017;-77
2022/07/04 10:49:14;;;;;;;;;;;;;;;35.41;21.35;100953.66;4945016;28;7192;-77
2022/07/04 10:51:46;;;;;;;;;;;;;;;35.88;21.82;100948.75;4939669;28;7267;-77
2022/07/04 10:54:18;;;;;;;;;;;;;;;36.60;21.89;100948.66;4938036;28;8762;-77
2022/07/04 10:57:11;;;;;;;;;;;;;;;37.01;20.92;100946.50;4929329;28;7300;-77
2022/07/04 10:59:38;;;;;;;;;;;;;;;36.72;20.42;100947.13;4958345;28;7424;-77
2022/07/04 11:02:06;;;;;;;;;;;;;;;36.39;20.78;100935.47;4959645;28;6977;-77
2022/07/04 11:05:00;;;;;;;;;;;;;;;36.48;21.22;100936.81;4962139;28;7190;-77
2022/07/04 11:07:52;;;;;;;;;;;;;;;36.71;20.64;100941.91;4957140;28;7073;-76
2022/07/04 11:13:06;;;;;;;;;;;;;;;37.29;20.50;100929.78;4974615;28;6780;-77
2022/07/04 11:15:31;;;;;;;;;;;;;;;37.69;20.23;100929.34;4940815;28;7291;-77
2022/07/04 11:17:59;;;;;;;;;;;;;;;38.06;19.80;100915.63;4955675;28;6926;-77
2022/07/04 11:20:29;;;;;;;;;;;;;;;38.34;19.65;100914.81;4963710;28;7192;-77
2022/07/04 11:23:05;;;;;;;;;;;;;;;38.54;19.54;100911.84;4960193;28;6796;-77
2022/07/04 11:25:32;;;;;;;;;;;;;;;38.63;19.31;100919.31;4963848;28;7153;-77
2022/07/04 11:27:57;;;;;;;;;;;;;;;38.69;19.26;100915.38;4943860;28;6815;-77
2022/07/04 11:30:23;;;;;;;;;;;;;;;38.82;19.23;100910.13;4976086;28;6848;-76
2022/07/04 11:32:48;;;;;;;;;;;;;;;39.07;19.13;100911.22;4972738;28;7024;-77
2022/07/04 11:35:21;;;;;;;;;;;;;;;39.34;19.06;100910.38;4962848;28;6792;-77
2022/07/04 11:37:59;;;;;;;;;;;;;;;39.61;18.65;100906.84;4947580;28;7008;-77
2022/07/04 11:46:13;;;;;;;;;;;;;;;40.58;17.62;100906.53;4944991;28;6804;-76
2022/07/04 11:48:39;;;;;;;;;;;;;;;40.71;17.40;100904.66;4958857;28;6861;-75
2022/07/04 11:51:17;;;;;;;;;;;;;;;40.38;17.33;100900.75;4955895;28;8048;-75
2022/07/04 11:53:43;;;;;;;;;;;;;;;39.55;17.56;100903.63;4930804;28;8413;-75
2022/07/04 11:56:09;;;;;;;;;;;;;;;39.23;18.43;100905.75;4966900;28;7183;-75
2022/07/04 11:58:44;;;;;;;;;;;;;;;38.94;18.45;100900.44;4939346;28;7053;-75
2022/07/04 12:01:11;;;;;;;;;;;;;;;38.80;18.89;100907.53;4964756;28;6958;-75
2022/07/04 12:03:36;;;;;;;;;;;;;;;39.10;18.46;100903.84;4962564;28;6923;-75
2022/07/04 12:06:08;;;;;;;;;;;;;;;39.62;18.55;100901.38;4960955;28;6792;-75
2022/07/04 12:08:34;;;;;;;;;;;;;;;40.16;18.37;100899.53;4952430;28;7303;-75
2022/07/04 12:10:59;;;;;;;;;;;;;;;40.53;17.69;100898.78;4961659;28;6768;-75
2022/07/04 12:13:25;;;;;;;;;;;;;;;40.80;17.72;100895.97;4964319;28;6776;-75
2022/07/04 12:15:52;;;;;;;;;;;;;;;40.90;17.44;100897.97;4977222;28;7912;-76
2022/07/04 12:18:33;;;;;;;;;;;;;;;40.42;17.40;100896.88;4962877;28;7012;-75
2022/07/04 12:21:19;;;;;;;;;;;;;;;39.41;17.59;100903.66;4959736;28;8740;-75
2022/07/04 12:23:53;;;;;;;;;;;;;;;38.79;17.98;100892.41;4948478;28;7250;-75
2022/07/04 12:26:19;;;;;;;;;;;;;;;38.10;17.73;100902.91;4949772;28;7250;-75
2022/07/04 12:28:44;;;;;;;;;;;;;;;37.16;18.33;100900.25;4967654;28;7201;-75
2022/07/04 12:31:10;;;;;;;;;;;;;;;36.36;19.45;100898.28;4941718;28;6955;-76
2022/07/04 12:33:36;;;;;;;;;;;;;;;36.12;19.78;100905.78;4960449;28;6959;-74
2022/07/04 12:36:05;;;;;;;;;;;;;;;36.20;19.41;100897.38;4977382;28;6980;-75
2022/07/04 12:38:39;;;;;;;;;;;;;;;35.75;20.05;100897.84;4965768;28;6812;-75
2022/07/04 12:41:15;;;;;;;;;;;;;;;35.01;20.08;100896.91;4935122;28;7219;-74
2022/07/04 12:43:43;;;;;;;;;;;;;;;34.35;20.72;100904.28;4946793;28;7370;-75
2022/07/04 12:46:12;;;;;;;;;;;;;;;33.75;21.45;100902.38;4948352;28;6992;-74
2022/07/04 12:48:40;;;;;;;;;;;;;;;33.29;22.02;100905.09;4947521;28;6868;-75
2022/07/04 12:51:12;;;;;;;;;;;;;;;32.91;22.32;100908.28;4963233;28;7166;-75
2022/07/04 12:53:41;;;;;;;;;;;;;;;32.60;22.93;100909.44;4960181;28;7250;-75
2022/07/04 12:56:08;;;;;;;;;;;;;;;32.35;23.30;100904.97;4983555;28;7004;-74
2022/07/04 12:58:34;;;;;;;;;;;;;;;32.18;24.10;100900.25;4973019;28;7035;-74
2022/07/04 13:01:00;;;;;;;;;;;;;;;32.10;24.49;100901.38;4970559;28;6947;-75
2022/07/04 13:03:26;;;;;;;;;;;;;;;32.12;24.19;100901.34;4946928;28;6800;-74
2022/07/04 13:05:52;;;;;;;;;;;;;;;32.18;24.65;100909.09;4967354;28;6981;-74
2022/07/04 13:08:17;;;;;;;;;;;;;;;32.20;24.47;100901.94;4932626;28;7128;-74